Time;durP1;ratioP1;P1;durP2;ratioP2;P2;SDS_P1;SDS_P2;PMS_P1;PMS_P2;Temp;Humidity;BMP_temperature;BMP_pressure;BME280_temperature;BME280_humidity;BME280_pressure;Samples;Min_cycle;Max_cycle;Signal;HPM_P1;HPM_P2
2023/10/24 00:09:36;;;;;;;;;;;12.70;99.90;;;;;;6713667;88;20551;-80
2023/10/24 00:19:37;;;;;;;;;;;12.50;99.90;;;;;;6709738;88;20086;-80
2023/10/24 00:29:37;;;;;;;;;;;12.60;99.90;;;;;;6709990;88;20537;-80
2023/10/24 00:39:37;;;;;;;;;;;12.60;99.90;;;;;;6711856;88;20055;-80
2023/10/24 00:49:38;;;;;;;;;;;12.60;99.90;;;;;;6712209;88;20059;-81
2023/10/24 00:59:39;;;;;;;;;;;12.60;99.90;;;;;;6713197;88;20058;-79
2023/10/24 01:09:40;;;;;;;;;;;12.70;99.90;;;;;;6711474;88;20109;-80
2023/10/24 01:19:40;;;;;;;;;;;12.70;99.90;;;;;;6719424;88;20177;-79
2023/10/24 01:29:41;;;;;;;;;;;12.70;99.90;;;;;;6711833;88;20133;-79
2023/10/24 01:39:41;;;;;;;;;;;12.80;99.90;;;;;;6710818;88;20097;-80
2023/10/24 01:49:41;;;;;;;;;;;12.80;99.90;;;;;;6713700;88;20191;-79
2023/10/24 01:59:42;;;;;;;;;;;12.90;99.90;;;;;;6713315;88;20055;-79
2023/10/24 02:09:42;;;;;;;;;;;12.90;99.90;;;;;;6712576;88;20059;-79
2023/10/24 02:19:43;;;;;;;;;;;12.80;99.90;;;;;;6713675;88;20216;-79
2023/10/24 02:29:43;;;;;;;;;;;12.80;99.90;;;;;;6715126;88;20653;-80
2023/10/24 02:49:47;;;;;;;;;;;12.80;99.90;;;;;;6709479;88;20172;-80
2023/10/24 02:59:48;;;;;;;;;;;12.70;99.90;;;;;;6708491;88;20170;-79
2023/10/24 03:09:48;;;;;;;;;;;12.80;99.90;;;;;;6705344;88;20055;-80
2023/10/24 03:19:49;;;;;;;;;;;12.80;99.90;;;;;;6707556;88;20070;-80
2023/10/24 03:29:49;;;;;;;;;;;12.80;99.90;;;;;;6704149;88;20514;-79
2023/10/24 03:39:50;;;;;;;;;;;12.80;99.90;;;;;;6708004;88;20059;-79
2023/10/24 03:49:50;;;;;;;;;;;12.70;99.90;;;;;;6707858;88;20078;-81
2023/10/24 03:59:51;;;;;;;;;;;12.70;99.90;;;;;;6707690;88;20186;-80
2023/10/24 04:09:51;;;;;;;;;;;12.70;99.90;;;;;;6703326;88;20071;-80
2023/10/24 04:19:52;;;;;;;;;;;12.70;99.90;;;;;;6707482;88;20067;-80
2023/10/24 04:29:53;;;;;;;;;;;12.70;99.90;;;;;;6706849;88;20066;-79
2023/10/24 04:39:54;;;;;;;;;;;12.60;99.90;;;;;;6706565;88;20075;-80
2023/10/24 04:49:55;;;;;;;;;;;12.60;99.90;;;;;;6707330;88;20615;-79
2023/10/24 04:59:55;;;;;;;;;;;12.40;99.90;;;;;;6701463;88;20054;-80
2023/10/24 05:09:56;;;;;;;;;;;12.40;99.90;;;;;;6705971;88;20062;-80
2023/10/24 05:20:02;;;;;;;;;;;12.30;99.90;;;;;;6709146;88;20550;-82
2023/10/24 05:30:03;;;;;;;;;;;12.40;99.90;;;;;;6713367;88;20068;-80
2023/10/24 05:40:04;;;;;;;;;;;12.40;99.90;;;;;;6709579;88;20604;-79
2023/10/24 05:50:05;;;;;;;;;;;12.40;99.90;;;;;;6704200;88;20149;-80
2023/10/24 06:00:07;;;;;;;;;;;12.40;99.90;;;;;;6693309;88;20083;-79
2023/10/24 06:10:07;;;;;;;;;;;12.20;99.90;;;;;;6705461;88;20910;-79
2023/10/24 06:20:08;;;;;;;;;;;12.40;99.90;;;;;;6709550;88;20095;-80
2023/10/24 06:30:09;;;;;;;;;;;12.40;99.90;;;;;;6705076;88;20508;-82
2023/10/24 06:40:09;;;;;;;;;;;12.30;99.90;;;;;;6708883;88;20099;-80
2023/10/24 06:50:10;;;;;;;;;;;12.30;99.90;;;;;;6708403;88;20198;-80
2023/10/24 07:00:11;;;;;;;;;;;12.10;99.90;;;;;;6708561;88;20208;-81
2023/10/24 07:10:12;;;;;;;;;;;12.00;99.90;;;;;;6706707;88;20071;-81
2023/10/24 07:20:12;;;;;;;;;;;11.90;99.90;;;;;;6710381;88;20082;-78
2023/10/24 07:30:13;;;;;;;;;;;11.90;99.90;;;;;;6712015;88;20473;-79
2023/10/24 07:40:13;;;;;;;;;;;12.00;99.90;;;;;;6714811;88;20176;-79
2023/10/24 07:50:14;;;;;;;;;;;12.10;99.90;;;;;;6703643;88;20044;-79
2023/10/24 08:00:14;;;;;;;;;;;12.20;99.90;;;;;;6705728;88;20086;-79
2023/10/24 08:10:16;;;;;;;;;;;12.40;99.90;;;;;;6708140;88;20077;-79
2023/10/24 08:20:16;;;;;;;;;;;12.40;99.90;;;;;;6706576;88;20121;-79
2023/10/24 08:30:17;;;;;;;;;;;12.50;99.90;;;;;;6705373;88;20487;-79
2023/10/24 08:40:17;;;;;;;;;;;12.60;99.90;;;;;;6704558;88;20199;-79
2023/10/24 08:50:18;;;;;;;;;;;12.60;99.90;;;;;;6706220;88;20079;-79
2023/10/24 09:00:18;;;;;;;;;;;12.90;99.90;;;;;;6712581;88;20087;-79
2023/10/24 09:10:20;;;;;;;;;;;12.90;99.90;;;;;;6710521;88;20283;-79
2023/10/24 09:20:20;;;;;;;;;;;13.10;99.90;;;;;;6707834;88;20055;-79
2023/10/24 09:30:23;;;;;;;;;;;13.20;99.90;;;;;;6712245;88;20502;-79
2023/10/24 09:40:32;;;;;;;;;;;13.40;99.90;;;;;;6704944;88;20087;-79
2023/10/24 09:50:53;;;;;;;;;;;13.60;99.90;;;;;;6723002;77;20075;-79
2023/10/24 10:00:54;;;;;;;;;;;13.70;99.90;;;;;;6725936;88;20075;-81
2023/10/24 10:10:54;;;;;;;;;;;13.80;99.90;;;;;;6732108;88;20146;-80
2023/10/24 10:21:17;;;;;;;;;;;13.90;99.90;;;;;;6728024;88;20114;-81
2023/10/24 10:31:36;;;;;;;;;;;13.90;99.90;;;;;;6714804;88;20099;-81
2023/10/24 10:41:38;;;;;;;;;;;13.80;99.90;;;;;;6716856;88;20079;-78
2023/10/24 10:51:38;;;;;;;;;;;13.80;99.90;;;;;;6709510;88;20793;-81
2023/10/24 11:01:51;;;;;;;;;;;13.60;99.90;;;;;;6709637;88;20089;-81
2023/10/24 11:12:10;;;;;;;;;;;13.30;99.90;;;;;;6719178;88;20059;-82
2023/10/24 11:22:11;;;;;;;;;;;13.20;99.90;;;;;;6717558;88;20043;-82
2023/10/24 11:32:12;;;;;;;;;;;13.30;99.90;;;;;;6725544;88;20071;-78
2023/10/24 11:42:13;;;;;;;;;;;13.30;99.90;;;;;;6709716;88;20064;-77
2023/10/24 11:52:13;;;;;;;;;;;13.50;99.90;;;;;;6718109;88;20080;-80
2023/10/24 12:02:15;;;;;;;;;;;13.40;99.90;;;;;;6714256;88;20147;-79
2023/10/24 12:12:15;;;;;;;;;;;13.60;99.90;;;;;;6709909;88;20056;-79
2023/10/24 12:22:16;;;;;;;;;;;13.40;99.90;;;;;;6723276;88;20561;-79
2023/10/24 12:32:16;;;;;;;;;;;13.30;99.90;;;;;;6708815;88;20142;-80
2023/10/24 12:42:17;;;;;;;;;;;13.20;99.90;;;;;;6704776;88;20197;-79
2023/10/24 12:52:17;;;;;;;;;;;13.00;99.90;;;;;;6708863;88;20065;-80
2023/10/24 13:02:18;;;;;;;;;;;12.30;99.90;;;;;;6713293;88;20596;-80
2023/10/24 13:12:18;;;;;;;;;;;12.10;99.90;;;;;;6710860;88;20092;-81
2023/10/24 13:22:19;;;;;;;;;;;11.90;99.90;;;;;;6721336;88;20124;-80
2023/10/24 13:32:19;;;;;;;;;;;12.00;99.90;;;;;;6732713;88;20108;-80
2023/10/24 13:42:20;;;;;;;;;;;12.10;99.90;;;;;;6728866;88;20523;-80
2023/10/24 13:52:20;;;;;;;;;;;12.60;99.90;;;;;;6730143;88;20087;-79
2023/10/24 14:02:20;;;;;;;;;;;14.80;99.90;;;;;;6727306;88;20059;-80
2023/10/24 14:12:21;;;;;;;;;;;15.20;99.90;;;;;;6727787;88;20046;-80
2023/10/24 14:22:21;;;;;;;;;;;14.30;99.90;;;;;;6735678;88;20072;-80
2023/10/24 14:32:22;;;;;;;;;;;14.20;99.90;;;;;;6721583;88;20236;-79
2023/10/24 14:42:22;;;;;;;;;;;14.50;99.90;;;;;;6723169;88;20082;-79
2023/10/24 14:52:23;;;;;;;;;;;14.50;99.90;;;;;;6721463;88;20201;-81
2023/10/24 15:02:23;;;;;;;;;;;14.90;99.90;;;;;;6725281;88;20074;-79
2023/10/24 15:12:24;;;;;;;;;;;15.30;99.90;;;;;;6716989;88;20244;-80
2023/10/24 15:22:24;;;;;;;;;;;15.30;99.90;;;;;;6707141;88;20055;-79
2023/10/24 15:32:27;;;;;;;;;;;15.40;99.90;;;;;;6727168;88;20089;-82
2023/10/24 15:42:27;;;;;;;;;;;15.00;99.90;;;;;;6730317;88;20077;-80
2023/10/24 15:52:28;;;;;;;;;;;14.40;99.90;;;;;;6735372;88;20509;-80
2023/10/24 16:02:28;;;;;;;;;;;13.80;99.90;;;;;;6738159;88;20093;-78
2023/10/24 16:12:29;;;;;;;;;;;13.10;99.90;;;;;;6738401;88;20070;-80
2023/10/24 16:22:29;;;;;;;;;;;12.80;99.90;;;;;;6731380;88;20059;-81
2023/10/24 16:32:30;;;;;;;;;;;12.50;99.90;;;;;;6729999;88;20120;-80
2023/10/24 16:42:31;;;;;;;;;;;12.00;99.90;;;;;;6736009;88;20687;-80
2023/10/24 16:52:31;;;;;;;;;;;11.80;99.90;;;;;;6736513;88;20035;-79
2023/10/24 17:02:32;;;;;;;;;;;11.60;99.90;;;;;;6734498;88;20075;-81
2023/10/24 17:12:33;;;;;;;;;;;11.40;99.90;;;;;;6730018;88;20765;-82
2023/10/24 17:22:34;;;;;;;;;;;11.40;99.90;;;;;;6737246;88;20602;-81
2023/10/24 17:32:35;;;;;;;;;;;11.10;99.90;;;;;;6721959;88;20077;-81
2023/10/24 17:42:37;;;;;;;;;;;10.80;99.90;;;;;;6710422;88;20063;-82
2023/10/24 17:52:37;;;;;;;;;;;10.80;99.90;;;;;;6722735;88;20055;-80
2023/10/24 18:02:38;;;;;;;;;;;11.10;99.90;;;;;;6721255;88;20075;-80
2023/10/24 18:12:38;;;;;;;;;;;10.80;99.90;;;;;;6717148;88;20665;-81
2023/10/24 18:22:39;;;;;;;;;;;10.60;99.90;;;;;;6716970;88;20150;-81
2023/10/24 18:32:39;;;;;;;;;;;10.50;99.90;;;;;;6723549;88;20077;-80
2023/10/24 18:42:41;;;;;;;;;;;10.60;99.90;;;;;;6715369;88;20531;-82
2023/10/24 18:52:41;;;;;;;;;;;10.60;99.90;;;;;;6715379;88;20062;-81
2023/10/24 19:02:42;;;;;;;;;;;10.80;99.90;;;;;;6720261;88;20092;-81
2023/10/24 19:12:42;;;;;;;;;;;10.80;99.90;;;;;;6720410;88;20073;-81
2023/10/24 19:22:43;;;;;;;;;;;10.90;99.90;;;;;;6724180;88;20082;-80
2023/10/24 19:32:43;;;;;;;;;;;11.00;99.90;;;;;;6693574;88;20092;-78
2023/10/24 19:42:44;;;;;;;;;;;10.20;99.90;;;;;;6672075;88;20048;-77
2023/10/24 19:52:45;;;;;;;;;;;9.70;99.90;;;;;;6703370;88;20471;-78
2023/10/24 20:02:46;;;;;;;;;;;9.50;99.90;;;;;;6704858;88;20058;-80
2023/10/24 20:12:46;;;;;;;;;;;9.60;99.90;;;;;;6705781;88;20050;-79
2023/10/24 20:22:47;;;;;;;;;;;9.50;99.90;;;;;;6703791;88;20471;-79
2023/10/24 20:32:47;;;;;;;;;;;9.30;99.90;;;;;;6703335;88;20117;-79
2023/10/24 20:42:48;;;;;;;;;;;9.20;99.90;;;;;;6698900;88;20079;-79
2023/10/24 20:52:48;;;;;;;;;;;9.20;99.90;;;;;;6705008;88;20070;-79
2023/10/24 21:02:49;;;;;;;;;;;9.10;99.90;;;;;;6705719;88;20055;-79
2023/10/24 21:12:50;;;;;;;;;;;9.00;99.90;;;;;;6704908;88;20114;-79
2023/10/24 21:22:51;;;;;;;;;;;9.00;99.90;;;;;;6704559;88;20114;-79
2023/10/24 21:32:51;;;;;;;;;;;8.90;99.90;;;;;;6714228;88;20135;-81
2023/10/24 21:42:52;;;;;;;;;;;8.90;99.90;;;;;;6713923;88;20081;-80
2023/10/24 21:52:52;;;;;;;;;;;8.80;99.90;;;;;;6723345;88;20110;-80
2023/10/24 22:02:53;;;;;;;;;;;8.80;99.90;;;;;;6726451;88;20069;-82
2023/10/24 22:12:53;;;;;;;;;;;8.70;99.90;;;;;;6724974;88;20109;-80
2023/10/24 22:22:54;;;;;;;;;;;8.60;99.90;;;;;;6724864;88;20058;-81
2023/10/24 22:32:54;;;;;;;;;;;8.60;99.90;;;;;;6720273;88;20185;-81
2023/10/24 22:42:54;;;;;;;;;;;8.60;99.90;;;;;;6738794;88;20050;-81
2023/10/24 22:52:58;;;;;;;;;;;8.40;99.90;;;;;;6741127;88;20076;-80
2023/10/24 23:02:59;;;;;;;;;;;8.40;99.90;;;;;;6732988;88;20579;-80
2023/10/24 23:13:00;;;;;;;;;;;8.50;99.90;;;;;;6725942;88;20227;-81
2023/10/24 23:23:01;;;;;;;;;;;8.50;99.90;;;;;;6725559;88;20066;-81
2023/10/24 23:33:01;;;;;;;;;;;8.40;99.90;;;;;;6728502;88;20459;-81
2023/10/24 23:43:02;;;;;;;;;;;8.40;99.90;;;;;;6674173;89;20069;-81
2023/10/24 23:53:02;;;;;;;;;;;8.40;99.90;;;;;;6706907;88;20067;-79
